»·PEaware :: N8833D KBFI-21W

N8833D :: KBFI-21W

FLIGHT INFORMATION

Flight Status: Arrived
Operator: Privately registered:
United States
More flights under this callsign
Pilot: Cooper L. (8467)
Aircraft: CESSNA 172 SKYHAWK
(C172)
More flights by this aircraft type
Origin: KBFI Boeing Field/King Co Intl
United States
Destination: 21W Ranger Creek
United States
More flights between these airports :: More routes between these airports
Route:
File this flight plan on PilotEdge
Remarks:
Altitude:
(Current/Filed)
2,000ft
Speed:
(Current/Filed)
130kts
Departed: 04-Mar-17 02:36 PM
Arrived: 04-Mar-17 03:25 PM
Distance/Time
Traveled:
44nm/0:48
Distance/Time
To Go:
Arrived

Flight Plot

Page will automatically refresh every two minutes.

Flight plan parsing failed; only flown route is shown


Map Options




Map Legend


Flown Route
Filed Route
Departure Airport
Arrival Airport
Navaid (VOR, NDB)
Fix

Horizontal Profiles

Position Reports

Time Latitude Longitude Heading Altitude Ground
Speed
04-Mar-17 14:36 47.526472 -122.282735 4 622ft 95kts
04-Mar-17 14:37 47.550577 -122.306616 325 833ft 113kts
04-Mar-17 14:38 47.578800 -122.332062 329 796ft 120kts
04-Mar-17 14:39 47.598703 -122.367310 287 878ft 115kts
04-Mar-17 14:40 47.608825 -122.410386 288 1160ft 111kts
04-Mar-17 14:41 47.617030 -122.454526 281 1377ft 112kts
04-Mar-17 14:42 47.615857 -122.499945 266 1729ft 106kts
04-Mar-17 14:43 47.595368 -122.534182 188 1412ft 128kts
04-Mar-17 14:44 47.562599 -122.536376 175 1468ft 113kts
04-Mar-17 14:45 47.531737 -122.533003 176 1478ft 112kts
04-Mar-17 14:46 47.500794 -122.529767 176 1460ft 111kts
04-Mar-17 14:47 47.470409 -122.525324 141 1432ft 112kts
04-Mar-17 14:48 47.465787 -122.480483 92 1439ft 112kts
04-Mar-17 14:49 47.465962 -122.434042 90 1469ft 114kts
04-Mar-17 14:50 47.465797 -122.386864 96 1479ft 116kts
04-Mar-17 14:51 47.464507 -122.338636 92 1400ft 121kts
04-Mar-17 14:52 47.462065 -122.292993 114 1345ft 120kts
04-Mar-17 14:53 47.447370 -122.251866 123 1498ft 114kts
04-Mar-17 14:54 47.430588 -122.211859 114 1479ft 117kts
04-Mar-17 14:55 47.417063 -122.167669 115 1440ft 120kts
04-Mar-17 14:56 47.401981 -122.124339 119 1435ft 118kts
04-Mar-17 14:57 47.384860 -122.083184 122 1444ft 118kts
04-Mar-17 14:58 47.369913 -122.049733 123 1450ft 118kts
04-Mar-17 14:59 47.345157 -122.009798 145 1728ft 105kts
04-Mar-17 15:00 47.322342 -121.986947 145 2412ft 97kts
04-Mar-17 15:01 47.303969 -121.968574 145 2991ft 95kts
04-Mar-17 15:02 47.276254 -121.941360 145 3425ft 117kts
04-Mar-17 15:03 47.250791 -121.928698 175 3412ft 120kts
04-Mar-17 15:04 47.211708 -121.923355 175 3397ft 120kts
04-Mar-17 15:05 47.189434 -121.909894 83 3108ft 135kts
04-Mar-17 15:06 47.173943 -121.864629 146 3164ft 126kts
04-Mar-17 15:07 47.158322 -121.833604 83 3219ft 121kts
04-Mar-17 15:08 47.173344 -121.780242 112 2551ft 118kts
04-Mar-17 15:09 47.163328 -121.741648 106 2083ft 115kts
04-Mar-17 15:10 47.153393 -121.705196 101 2564ft 87kts
04-Mar-17 15:11 47.150247 -121.677599 82 3402ft 55kts
04-Mar-17 15:12 47.148522 -121.652677 92 3791ft 55kts
04-Mar-17 15:13 47.129283 -121.620274 160 3254ft 105kts
04-Mar-17 15:14 47.102491 -121.594694 157 3188ft 117kts
04-Mar-17 15:15 47.071180 -121.580848 163 3314ft 118kts
04-Mar-17 15:16 47.039673 -121.565925 148 3098ft 120kts
04-Mar-17 15:17 47.024263 -121.539519 123 2864ft 110kts
04-Mar-17 15:18 47.005090 -121.531914 15 2966ft 81kts
04-Mar-17 15:19 47.023117 -121.541259 278 2863ft 74kts
04-Mar-17 15:20 47.001679 -121.537161 164 3131ft 70kts
04-Mar-17 15:21 47.009122 -121.533423 348 2678ft 72kts
04-Mar-17 15:22 47.019122 -121.536355 336 2738ft 59kts
04-Mar-17 15:23 47.015188 -121.543819 136 3031ft 107kts
04-Mar-17 15:24 46.992617 -121.533757 74 3036ft 58kts
04-Mar-17 15:25 47.011462 -121.534042 351 2653ft 59kts
04-Mar-17 15:26 47.016560 -121.535690 171 2653ft 0kts

Navigation Log

Ident Type
Flight plan parsing failed, navigation log unavailable